sensor_id;sensor_type;location;lat;lon;timestamp;pressure;altitude;pressure_sealevel;temperature;humidity
498;BME280;39559;48.630;9.162;2023-06-04T00:01:38;97438.00;;;10.91;100.00
498;BME280;39559;48.630;9.162;2023-06-04T00:06:09;97437.66;;;10.80;100.00
498;BME280;39559;48.630;9.162;2023-06-04T00:08:35;97446.91;;;10.66;100.00
498;BME280;39559;48.630;9.162;2023-06-04T00:11:00;97434.81;;;10.65;100.00
498;BME280;39559;48.630;9.162;2023-06-04T00:13:26;97432.09;;;10.87;100.00
498;BME280;39559;48.630;9.162;2023-06-04T00:15:51;97433.44;;;10.77;100.00
498;BME280;39559;48.630;9.162;2023-06-04T00:18:17;97439.28;;;10.62;100.00
498;BME280;39559;48.630;9.162;2023-06-04T00:20:42;97438.59;;;10.58;100.00
498;BME280;39559;48.630;9.162;2023-06-04T00:23:08;97433.66;;;10.52;100.00
498;BME280;39559;48.630;9.162;2023-06-04T00:25:33;97428.06;;;10.61;100.00
498;BME280;39559;48.630;9.162;2023-06-04T00:30:06;97434.00;;;10.44;100.00
498;BME280;39559;48.630;9.162;2023-06-04T00:32:32;97435.66;;;10.25;100.00
498;BME280;39559;48.630;9.162;2023-06-04T00:34:57;97437.53;;;10.21;100.00
498;BME280;39559;48.630;9.162;2023-06-04T00:37:24;97431.66;;;10.38;100.00
498;BME280;39559;48.630;9.162;2023-06-04T00:39:50;97440.00;;;10.24;100.00
498;BME280;39559;48.630;9.162;2023-06-04T00:42:16;97433.28;;;10.41;100.00
498;BME280;39559;48.630;9.162;2023-06-04T00:44:42;97434.84;;;10.45;100.00
498;BME280;39559;48.630;9.162;2023-06-04T00:47:18;97442.34;;;10.30;100.00
498;BME280;39559;48.630;9.162;2023-06-04T00:49:45;97440.44;;;10.13;100.00
498;BME280;39559;48.630;9.162;2023-06-04T00:54:05;97444.78;;;10.13;100.00
498;BME280;39559;48.630;9.162;2023-06-04T00:56:36;97449.56;;;10.02;100.00
498;BME280;39559;48.630;9.162;2023-06-04T00:59:04;97453.00;;;10.02;100.00
498;BME280;39559;48.630;9.162;2023-06-04T01:02:01;97458.63;;;9.91;100.00
498;BME280;39559;48.630;9.162;2023-06-04T01:04:42;97454.53;;;9.86;100.00
498;BME280;39559;48.630;9.162;2023-06-04T01:07:09;97452.00;;;10.06;100.00
498;BME280;39559;48.630;9.162;2023-06-04T01:09:38;97454.78;;;9.79;100.00
498;BME280;39559;48.630;9.162;2023-06-04T01:12:05;97453.03;;;9.80;100.00
498;BME280;39559;48.630;9.162;2023-06-04T01:14:31;97454.84;;;9.78;100.00
498;BME280;39559;48.630;9.162;2023-06-04T01:18:00;97450.13;;;9.66;100.00
498;BME280;39559;48.630;9.162;2023-06-04T01:23:30;97444.59;;;9.53;100.00
498;BME280;39559;48.630;9.162;2023-06-04T01:26:03;97459.06;;;9.58;100.00
498;BME280;39559;48.630;9.162;2023-06-04T01:28:30;97454.00;;;9.55;100.00
498;BME280;39559;48.630;9.162;2023-06-04T01:30:58;97453.41;;;9.71;100.00
498;BME280;39559;48.630;9.162;2023-06-04T01:33:25;97452.66;;;9.45;100.00
498;BME280;39559;48.630;9.162;2023-06-04T01:35:51;97454.50;;;9.65;100.00
498;BME280;39559;48.630;9.162;2023-06-04T01:38:17;97454.06;;;9.76;100.00
498;BME280;39559;48.630;9.162;2023-06-04T01:41:53;97457.44;;;9.34;100.00
498;BME280;39559;48.630;9.162;2023-06-04T01:44:19;97455.97;;;9.27;100.00
498;BME280;39559;48.630;9.162;2023-06-04T01:46:45;97453.50;;;9.23;100.00
498;BME280;39559;48.630;9.162;2023-06-04T01:49:10;97450.94;;;9.22;100.00
498;BME280;39559;48.630;9.162;2023-06-04T01:51:36;97459.78;;;9.40;100.00
498;BME280;39559;48.630;9.162;2023-06-04T01:54:02;97457.06;;;9.43;100.00
498;BME280;39559;48.630;9.162;2023-06-04T01:56:27;97460.13;;;9.31;100.00
498;BME280;39559;48.630;9.162;2023-06-04T01:58:53;97454.47;;;9.21;100.00
498;BME280;39559;48.630;9.162;2023-06-04T02:01:18;97452.31;;;9.09;100.00
498;BME280;39559;48.630;9.162;2023-06-04T02:05:49;97451.69;;;9.26;100.00
498;BME280;39559;48.630;9.162;2023-06-04T02:08:15;97452.47;;;9.28;100.00
498;BME280;39559;48.630;9.162;2023-06-04T02:10:53;97449.16;;;9.24;100.00
498;BME280;39559;48.630;9.162;2023-06-04T02:13:19;97453.44;;;9.01;100.00
498;BME280;39559;48.630;9.162;2023-06-04T02:15:44;97452.50;;;8.80;100.00
498;BME280;39559;48.630;9.162;2023-06-04T02:20:41;97460.47;;;8.98;100.00
498;BME280;39559;48.630;9.162;2023-06-04T02:23:07;97458.13;;;8.92;100.00
498;BME280;39559;48.630;9.162;2023-06-04T02:25:32;97459.19;;;8.86;100.00
498;BME280;39559;48.630;9.162;2023-06-04T02:29:47;97458.13;;;8.92;100.00
498;BME280;39559;48.630;9.162;2023-06-04T02:32:13;97463.97;;;8.73;100.00
498;BME280;39559;48.630;9.162;2023-06-04T02:34:38;97455.78;;;8.60;100.00
498;BME280;39559;48.630;9.162;2023-06-04T02:37:04;97460.00;;;8.63;100.00
498;BME280;39559;48.630;9.162;2023-06-04T02:39:30;97459.19;;;8.62;100.00
498;BME280;39559;48.630;9.162;2023-06-04T02:41:55;97460.56;;;8.71;100.00
498;BME280;39559;48.630;9.162;2023-06-04T02:44:21;97457.53;;;8.83;100.00
498;BME280;39559;48.630;9.162;2023-06-04T02:46:47;97459.09;;;8.64;100.00
498;BME280;39559;48.630;9.162;2023-06-04T02:49:12;97452.38;;;8.58;100.00
498;BME280;39559;48.630;9.162;2023-06-04T02:53:44;97456.91;;;8.53;100.00
498;BME280;39559;48.630;9.162;2023-06-04T02:56:10;97462.47;;;8.41;100.00
498;BME280;39559;48.630;9.162;2023-06-04T02:58:50;97461.63;;;8.40;100.00
498;BME280;39559;48.630;9.162;2023-06-04T03:01:20;97465.88;;;8.43;100.00
498;BME280;39559;48.630;9.162;2023-06-04T03:03:47;97465.03;;;8.42;100.00
498;BME280;39559;48.630;9.162;2023-06-04T03:06:16;97459.88;;;8.42;100.00
498;BME280;39559;48.630;9.162;2023-06-04T03:08:46;97460.91;;;8.37;100.00
498;BME280;39559;48.630;9.162;2023-06-04T03:11:21;97469.53;;;8.36;100.00
498;BME280;39559;48.630;9.162;2023-06-04T03:13:47;97465.31;;;8.33;100.00
498;BME280;39559;48.630;9.162;2023-06-04T03:17:41;97476.56;;;8.32;100.00
498;BME280;39559;48.630;9.162;2023-06-04T03:20:07;97472.81;;;8.42;100.00
498;BME280;39559;48.630;9.162;2023-06-04T03:22:33;97479.78;;;8.39;100.00
498;BME280;39559;48.630;9.162;2023-06-04T03:25:02;97485.38;;;8.26;100.00
498;BME280;39559;48.630;9.162;2023-06-04T03:27:31;97476.91;;;8.21;100.00
498;BME280;39559;48.630;9.162;2023-06-04T03:29:57;97484.63;;;8.23;100.00
498;BME280;39559;48.630;9.162;2023-06-04T03:32:22;97487.00;;;8.29;100.00
498;BME280;39559;48.630;9.162;2023-06-04T03:34:48;97489.59;;;8.29;100.00
498;BME280;39559;48.630;9.162;2023-06-04T03:37:16;97485.56;;;8.20;100.00
498;BME280;39559;48.630;9.162;2023-06-04T03:41:39;97486.00;;;8.08;100.00
498;BME280;39559;48.630;9.162;2023-06-04T03:44:06;97485.94;;;8.10;100.00
498;BME280;39559;48.630;9.162;2023-06-04T03:46:32;97493.78;;;8.06;100.00
498;BME280;39559;48.630;9.162;2023-06-04T03:48:59;97495.41;;;8.09;100.00
498;BME280;39559;48.630;9.162;2023-06-04T03:51:24;97497.25;;;8.32;100.00
498;BME280;39559;48.630;9.162;2023-06-04T03:53:50;97500.91;;;8.26;100.00
498;BME280;39559;48.630;9.162;2023-06-04T03:56:16;97500.72;;;8.31;100.00
498;BME280;39559;48.630;9.162;2023-06-04T03:58:41;97507.00;;;8.24;100.00
498;BME280;39559;48.630;9.162;2023-06-04T04:01:08;97508.06;;;8.18;100.00
498;BME280;39559;48.630;9.162;2023-06-04T04:05:35;97503.28;;;8.06;100.00
498;BME280;39559;48.630;9.162;2023-06-04T04:08:11;97501.50;;;8.08;100.00
498;BME280;39559;48.630;9.162;2023-06-04T04:10:40;97500.47;;;8.14;100.00
498;BME280;39559;48.630;9.162;2023-06-04T04:13:06;97503.75;;;8.19;100.00
498;BME280;39559;48.630;9.162;2023-06-04T04:15:31;97507.06;;;8.22;100.00
498;BME280;39559;48.630;9.162;2023-06-04T04:17:57;97509.66;;;8.22;100.00
498;BME280;39559;48.630;9.162;2023-06-04T04:20:22;97507.75;;;8.27;100.00
498;BME280;39559;48.630;9.162;2023-06-04T04:22:48;97505.97;;;8.30;100.00
498;BME280;39559;48.630;9.162;2023-06-04T04:25:15;97509.31;;;8.33;100.00
498;BME280;39559;48.630;9.162;2023-06-04T04:29:33;97513.63;;;8.33;100.00
498;BME280;39559;48.630;9.162;2023-06-04T04:32:01;97516.13;;;8.36;100.00
498;BME280;39559;48.630;9.162;2023-06-04T04:34:38;97513.25;;;8.45;100.00
498;BME280;39559;48.630;9.162;2023-06-04T04:37:08;97524.25;;;8.52;100.00
498;BME280;39559;48.630;9.162;2023-06-04T04:39:35;97516.25;;;8.58;100.00
498;BME280;39559;48.630;9.162;2023-06-04T04:42:04;97521.53;;;8.55;100.00
498;BME280;39559;48.630;9.162;2023-06-04T04:44:29;97524.06;;;8.56;100.00
498;BME280;39559;48.630;9.162;2023-06-04T04:46:55;97524.81;;;8.60;100.00
498;BME280;39559;48.630;9.162;2023-06-04T04:49:20;97527.25;;;8.64;100.00
498;BME280;39559;48.630;9.162;2023-06-04T04:53:30;97525.84;;;8.81;100.00
498;BME280;39559;48.630;9.162;2023-06-04T04:55:57;97523.84;;;8.88;100.00
498;BME280;39559;48.630;9.162;2023-06-04T04:58:27;97527.38;;;8.87;100.00
498;BME280;39559;48.630;9.162;2023-06-04T05:00:53;97530.66;;;8.92;100.00
498;BME280;39559;48.630;9.162;2023-06-04T05:03:18;97529.53;;;8.99;100.00
498;BME280;39559;48.630;9.162;2023-06-04T05:05:44;97532.56;;;9.10;100.00
498;BME280;39559;48.630;9.162;2023-06-04T05:08:09;97531.13;;;9.27;100.00
498;BME280;39559;48.630;9.162;2023-06-04T05:10:35;97530.09;;;9.31;100.00
498;BME280;39559;48.630;9.162;2023-06-04T05:13:01;97536.78;;;9.36;100.00
498;BME280;39559;48.630;9.162;2023-06-04T05:17:28;97544.81;;;9.54;100.00
498;BME280;39559;48.630;9.162;2023-06-04T05:20:01;97536.72;;;9.61;100.00
498;BME280;39559;48.630;9.162;2023-06-04T05:22:30;97538.97;;;9.71;100.00
498;BME280;39559;48.630;9.162;2023-06-04T05:25:04;97550.91;;;9.75;100.00
498;BME280;39559;48.630;9.162;2023-06-04T05:27:33;97553.97;;;9.86;100.00
498;BME280;39559;48.630;9.162;2023-06-04T05:29:58;97554.59;;;9.91;100.00
498;BME280;39559;48.630;9.162;2023-06-04T05:32:24;97548.28;;;9.98;100.00
498;BME280;39559;48.630;9.162;2023-06-04T05:34:54;97544.47;;;10.07;100.00
498;BME280;39559;48.630;9.162;2023-06-04T05:37:26;97551.94;;;10.15;100.00
498;BME280;39559;48.630;9.162;2023-06-04T05:41:26;97547.19;;;10.26;100.00
498;BME280;39559;48.630;9.162;2023-06-04T05:44:01;97551.84;;;10.40;100.00
498;BME280;39559;48.630;9.162;2023-06-04T05:46:27;97547.69;;;10.56;100.00
498;BME280;39559;48.630;9.162;2023-06-04T05:48:53;97551.56;;;10.68;100.00
498;BME280;39559;48.630;9.162;2023-06-04T05:51:19;97548.34;;;10.82;100.00
498;BME280;39559;48.630;9.162;2023-06-04T05:53:45;97547.13;;;10.91;100.00
498;BME280;39559;48.630;9.162;2023-06-04T05:56:11;97543.09;;;11.04;100.00
498;BME280;39559;48.630;9.162;2023-06-04T05:58:37;97546.84;;;11.18;100.00
498;BME280;39559;48.630;9.162;2023-06-04T06:01:03;97549.63;;;11.33;100.00
498;BME280;39559;48.630;9.162;2023-06-04T06:05:23;97550.25;;;11.58;100.00
498;BME280;39559;48.630;9.162;2023-06-04T06:07:48;97548.84;;;11.69;100.00
498;BME280;39559;48.630;9.162;2023-06-04T06:10:15;97547.22;;;11.86;100.00
498;BME280;39559;48.630;9.162;2023-06-04T06:12:41;97556.66;;;12.07;100.00
498;BME280;39559;48.630;9.162;2023-06-04T06:15:07;97554.59;;;12.14;100.00
498;BME280;39559;48.630;9.162;2023-06-04T06:17:32;97550.47;;;12.27;100.00
498;BME280;39559;48.630;9.162;2023-06-04T06:20:01;97560.00;;;12.28;100.00
498;BME280;39559;48.630;9.162;2023-06-04T06:22:31;97558.41;;;12.43;100.00
498;BME280;39559;48.630;9.162;2023-06-04T06:24:57;97562.63;;;12.63;100.00
498;BME280;39559;48.630;9.162;2023-06-04T06:29:21;97567.38;;;12.90;100.00
498;BME280;39559;48.630;9.162;2023-06-04T06:31:46;97565.22;;;12.98;100.00
498;BME280;39559;48.630;9.162;2023-06-04T06:34:12;97564.66;;;13.09;100.00
498;BME280;39559;48.630;9.162;2023-06-04T06:36:38;97575.38;;;13.20;100.00
498;BME280;39559;48.630;9.162;2023-06-04T06:39:03;97572.56;;;13.42;100.00
498;BME280;39559;48.630;9.162;2023-06-04T06:41:29;97577.50;;;13.47;100.00
498;BME280;39559;48.630;9.162;2023-06-04T06:44:05;97571.84;;;13.88;93.98
498;BME280;39559;48.630;9.162;2023-06-04T06:46:31;97574.34;;;13.90;93.38
498;BME280;39559;48.630;9.162;2023-06-04T06:48:57;97582.78;;;13.95;97.21
498;BME280;39559;48.630;9.162;2023-06-04T06:53:18;97574.53;;;14.18;94.90
498;BME280;39559;48.630;9.162;2023-06-04T06:55:43;97581.44;;;14.19;91.84
498;BME280;39559;48.630;9.162;2023-06-04T06:58:09;97575.53;;;14.32;91.59
498;BME280;39559;48.630;9.162;2023-06-04T07:00:34;97575.75;;;14.43;92.04
498;BME280;39559;48.630;9.162;2023-06-04T07:03:00;97571.50;;;14.56;91.15
498;BME280;39559;48.630;9.162;2023-06-04T07:05:25;97567.88;;;14.75;87.90
498;BME280;39559;48.630;9.162;2023-06-04T07:07:51;97573.84;;;14.77;88.71
498;BME280;39559;48.630;9.162;2023-06-04T07:10:17;97574.09;;;14.88;87.92
498;BME280;39559;48.630;9.162;2023-06-04T07:12:42;97575.28;;;14.97;87.79
498;BME280;39559;48.630;9.162;2023-06-04T07:17:16;97575.97;;;15.15;86.80
498;BME280;39559;48.630;9.162;2023-06-04T07:19:42;97577.94;;;15.26;82.16
498;BME280;39559;48.630;9.162;2023-06-04T07:22:07;97577.88;;;15.27;80.75
498;BME280;39559;48.630;9.162;2023-06-04T07:24:33;97559.56;;;15.56;79.13
498;BME280;39559;48.630;9.162;2023-06-04T07:26:58;97573.13;;;15.63;76.83
498;BME280;39559;48.630;9.162;2023-06-04T07:29:24;97567.56;;;15.67;75.71
498;BME280;39559;48.630;9.162;2023-06-04T07:31:49;97562.34;;;15.82;77.69
498;BME280;39559;48.630;9.162;2023-06-04T07:34:15;97563.00;;;15.85;77.68
498;BME280;39559;48.630;9.162;2023-06-04T07:36:41;97560.50;;;16.11;76.37
498;BME280;39559;48.630;9.162;2023-06-04T07:41:14;97563.59;;;16.18;79.29
498;BME280;39559;48.630;9.162;2023-06-04T07:43:39;97564.56;;;16.29;78.33
498;BME280;39559;48.630;9.162;2023-06-04T07:46:06;97556.03;;;16.53;71.90
498;BME280;39559;48.630;9.162;2023-06-04T07:48:31;97556.50;;;16.60;79.07
498;BME280;39559;48.630;9.162;2023-06-04T07:51:01;97563.22;;;16.64;76.70
498;BME280;39559;48.630;9.162;2023-06-04T07:53:27;97557.88;;;16.78;72.28
498;BME280;39559;48.630;9.162;2023-06-04T07:55:53;97556.75;;;16.82;72.85
498;BME280;39559;48.630;9.162;2023-06-04T07:58:19;97556.06;;;16.66;74.70
498;BME280;39559;48.630;9.162;2023-06-04T08:00:44;97558.31;;;16.72;74.60
498;BME280;39559;48.630;9.162;2023-06-04T08:05:15;97548.41;;;17.03;76.63
498;BME280;39559;48.630;9.162;2023-06-04T08:07:41;97551.56;;;17.21;67.03
498;BME280;39559;48.630;9.162;2023-06-04T08:10:07;97550.63;;;17.22;67.86
498;BME280;39559;48.630;9.162;2023-06-04T08:12:33;97551.97;;;17.40;69.14
498;BME280;39559;48.630;9.162;2023-06-04T08:14:58;97547.56;;;17.41;70.78
498;BME280;39559;48.630;9.162;2023-06-04T08:17:24;97548.06;;;17.46;71.22
498;BME280;39559;48.630;9.162;2023-06-04T08:19:49;97555.19;;;17.57;74.17
498;BME280;39559;48.630;9.162;2023-06-04T08:22:15;97559.41;;;17.59;73.31
498;BME280;39559;48.630;9.162;2023-06-04T08:24:41;97555.69;;;17.75;72.82
498;BME280;39559;48.630;9.162;2023-06-04T08:29:09;97554.28;;;18.08;71.39
498;BME280;39559;48.630;9.162;2023-06-04T08:31:35;97553.50;;;18.18;68.13
498;BME280;39559;48.630;9.162;2023-06-04T08:34:00;97542.72;;;18.34;67.91
498;BME280;39559;48.630;9.162;2023-06-04T08:36:27;97543.50;;;18.59;68.79
498;BME280;39559;48.630;9.162;2023-06-04T08:38:53;97542.34;;;18.39;64.90
498;BME280;39559;48.630;9.162;2023-06-04T08:41:24;97542.06;;;18.55;69.00
498;BME280;39559;48.630;9.162;2023-06-04T08:43:57;97543.94;;;18.77;64.90
498;BME280;39559;48.630;9.162;2023-06-04T08:46:28;97544.19;;;18.74;66.77
498;BME280;39559;48.630;9.162;2023-06-04T08:48:56;97540.41;;;18.89;66.61
498;BME280;39559;48.630;9.162;2023-06-04T08:53:06;97540.09;;;19.05;63.62
498;BME280;39559;48.630;9.162;2023-06-04T08:55:32;97539.59;;;19.00;60.84
498;BME280;39559;48.630;9.162;2023-06-04T08:57:59;97538.09;;;19.20;61.79
498;BME280;39559;48.630;9.162;2023-06-04T09:00:29;97540.59;;;19.33;61.20
498;BME280;39559;48.630;9.162;2023-06-04T09:02:54;97545.38;;;19.39;60.77
498;BME280;39559;48.630;9.162;2023-06-04T09:05:22;97540.84;;;19.64;61.00
498;BME280;39559;48.630;9.162;2023-06-04T09:07:53;97537.84;;;19.57;60.01
498;BME280;39559;48.630;9.162;2023-06-04T09:10:25;97541.34;;;19.80;58.20
498;BME280;39559;48.630;9.162;2023-06-04T09:12:52;97537.75;;;19.92;58.15
498;BME280;39559;48.630;9.162;2023-06-04T09:17:04;97545.63;;;20.04;58.62
498;BME280;39559;48.630;9.162;2023-06-04T09:19:29;97547.88;;;20.20;56.42
498;BME280;39559;48.630;9.162;2023-06-04T09:21:59;97541.91;;;20.39;57.92
498;BME280;39559;48.630;9.162;2023-06-04T09:24:42;97545.25;;;20.52;59.84
498;BME280;39559;48.630;9.162;2023-06-04T09:27:16;97551.25;;;20.43;55.05
498;BME280;39559;48.630;9.162;2023-06-04T09:29:52;97556.56;;;20.31;56.56
498;BME280;39559;48.630;9.162;2023-06-04T09:32:22;97560.34;;;20.50;53.96
498;BME280;39559;48.630;9.162;2023-06-04T09:34:48;97555.13;;;20.71;55.56
498;BME280;39559;48.630;9.162;2023-06-04T09:37:17;97547.56;;;20.78;56.01
498;BME280;39559;48.630;9.162;2023-06-04T09:40:59;97542.06;;;20.69;52.69
498;BME280;39559;48.630;9.162;2023-06-04T09:43:27;97546.75;;;20.66;54.24
498;BME280;39559;48.630;9.162;2023-06-04T09:45:53;97541.41;;;20.77;54.69
498;BME280;39559;48.630;9.162;2023-06-04T09:48:21;97539.28;;;20.71;53.59
498;BME280;39559;48.630;9.162;2023-06-04T09:50:47;97540.41;;;20.57;52.84
498;BME280;39559;48.630;9.162;2023-06-04T09:53:19;97544.44;;;20.73;53.13
498;BME280;39559;48.630;9.162;2023-06-04T09:55:57;97541.38;;;20.88;55.71
498;BME280;39559;48.630;9.162;2023-06-04T09:58:28;97538.13;;;21.06;55.81
498;BME280;39559;48.630;9.162;2023-06-04T10:01:02;97553.78;;;21.19;54.65
498;BME280;39559;48.630;9.162;2023-06-04T10:04:58;97549.94;;;21.23;53.40
498;BME280;39559;48.630;9.162;2023-06-04T10:07:26;97539.84;;;21.38;52.33
498;BME280;39559;48.630;9.162;2023-06-04T10:09:52;97543.44;;;21.58;51.93
498;BME280;39559;48.630;9.162;2023-06-04T10:12:24;97540.94;;;21.56;48.45
498;BME280;39559;48.630;9.162;2023-06-04T10:15:02;97545.22;;;21.57;52.36
498;BME280;39559;48.630;9.162;2023-06-04T10:17:29;97541.28;;;21.73;51.64
498;BME280;39559;48.630;9.162;2023-06-04T10:19:59;97537.44;;;22.06;51.14
498;BME280;39559;48.630;9.162;2023-06-04T10:22:31;97530.78;;;22.02;51.71
498;BME280;39559;48.630;9.162;2023-06-04T10:24:58;97529.38;;;21.98;50.27
498;BME280;39559;48.630;9.162;2023-06-04T10:28:56;97542.22;;;22.12;48.12
498;BME280;39559;48.630;9.162;2023-06-04T10:31:22;97530.19;;;21.89;47.75
498;BME280;39559;48.630;9.162;2023-06-04T10:33:53;97534.53;;;21.99;47.89
498;BME280;39559;48.630;9.162;2023-06-04T10:36:24;97540.78;;;21.89;51.16
498;BME280;39559;48.630;9.162;2023-06-04T10:38:52;97534.28;;;21.62;49.79
498;BME280;39559;48.630;9.162;2023-06-04T10:41:19;97533.38;;;21.00;49.38
498;BME280;39559;48.630;9.162;2023-06-04T10:43:47;97533.38;;;20.79;52.10
498;BME280;39559;48.630;9.162;2023-06-04T10:46:17;97524.63;;;21.30;50.85
498;BME280;39559;48.630;9.162;2023-06-04T10:48:50;97534.53;;;21.59;52.87
498;BME280;39559;48.630;9.162;2023-06-04T10:52:53;97529.50;;;21.96;52.15
498;BME280;39559;48.630;9.162;2023-06-04T10:55:19;97521.88;;;22.22;52.72
498;BME280;39559;48.630;9.162;2023-06-04T10:58:03;97528.63;;;22.27;51.03
498;BME280;39559;48.630;9.162;2023-06-04T11:00:45;97531.38;;;22.25;48.57
498;BME280;39559;48.630;9.162;2023-06-04T11:03:13;97531.28;;;22.36;50.34
498;BME280;39559;48.630;9.162;2023-06-04T11:05:46;97533.75;;;22.28;49.51
498;BME280;39559;48.630;9.162;2023-06-04T11:08:12;97535.00;;;22.34;48.02
498;BME280;39559;48.630;9.162;2023-06-04T11:10:43;97527.88;;;22.15;45.88
498;BME280;39559;48.630;9.162;2023-06-04T11:13:10;97534.25;;;22.02;46.32
498;BME280;39559;48.630;9.162;2023-06-04T11:16:47;97535.50;;;22.08;49.20
498;BME280;39559;48.630;9.162;2023-06-04T11:21:37;97534.31;;;22.51;49.00
498;BME280;39559;48.630;9.162;2023-06-04T11:24:03;97533.50;;;22.70;49.00
498;BME280;39559;48.630;9.162;2023-06-04T11:26:33;97521.31;;;22.97;46.45
498;BME280;39559;48.630;9.162;2023-06-04T11:29:00;97520.34;;;23.08;47.50
498;BME280;39559;48.630;9.162;2023-06-04T11:31:27;97524.09;;;23.15;46.43
498;BME280;39559;48.630;9.162;2023-06-04T11:33:53;97521.50;;;23.05;47.32
498;BME280;39559;48.630;9.162;2023-06-04T11:36:25;97517.00;;;23.53;50.12
498;BME280;39559;48.630;9.162;2023-06-04T11:40:42;97511.31;;;23.75;46.78
498;BME280;39559;48.630;9.162;2023-06-04T11:43:15;97514.84;;;23.66;43.63
498;BME280;39559;48.630;9.162;2023-06-04T11:45:41;97518.66;;;23.16;48.40
498;BME280;39559;48.630;9.162;2023-06-04T11:48:10;97515.06;;;23.08;44.96
498;BME280;39559;48.630;9.162;2023-06-04T11:50:36;97526.13;;;22.54;44.50
498;BME280;39559;48.630;9.162;2023-06-04T11:53:02;97517.28;;;22.24;46.25
498;BME280;39559;48.630;9.162;2023-06-04T11:55:28;97526.91;;;22.16;48.54
498;BME280;39559;48.630;9.162;2023-06-04T11:57:54;97524.34;;;21.95;47.60
498;BME280;39559;48.630;9.162;2023-06-04T12:00:20;97517.75;;;22.30;48.01
498;BME280;39559;48.630;9.162;2023-06-04T12:04:38;97510.03;;;23.14;45.03
498;BME280;39559;48.630;9.162;2023-06-04T12:07:04;97501.78;;;23.17;45.15
498;BME280;39559;48.630;9.162;2023-06-04T12:09:38;97498.19;;;22.99;45.25
498;BME280;39559;48.630;9.162;2023-06-04T12:12:06;97507.56;;;22.64;47.35
498;BME280;39559;48.630;9.162;2023-06-04T12:14:32;97507.16;;;22.59;47.14
498;BME280;39559;48.630;9.162;2023-06-04T12:17:00;97497.50;;;23.07;44.17
498;BME280;39559;48.630;9.162;2023-06-04T12:19:27;97501.22;;;23.14;43.62
498;BME280;39559;48.630;9.162;2023-06-04T12:22:03;97500.00;;;23.18;44.36
498;BME280;39559;48.630;9.162;2023-06-04T12:24:31;97490.00;;;23.40;46.23
498;BME280;39559;48.630;9.162;2023-06-04T12:28:34;97488.66;;;23.91;44.62
498;BME280;39559;48.630;9.162;2023-06-04T12:31:16;97490.25;;;24.02;43.15
498;BME280;39559;48.630;9.162;2023-06-04T12:33:42;97495.34;;;24.13;44.93
498;BME280;39559;48.630;9.162;2023-06-04T12:36:08;97495.97;;;24.61;44.93
498;BME280;39559;48.630;9.162;2023-06-04T12:38:33;97497.97;;;23.95;39.85
498;BME280;39559;48.630;9.162;2023-06-04T12:40:59;97486.59;;;24.03;43.49
498;BME280;39559;48.630;9.162;2023-06-04T12:43:24;97489.34;;;23.93;39.93
498;BME280;39559;48.630;9.162;2023-06-04T12:45:51;97491.19;;;23.83;41.79
498;BME280;39559;48.630;9.162;2023-06-04T12:48:18;97487.25;;;24.14;44.56
498;BME280;39559;48.630;9.162;2023-06-04T12:52:29;97485.56;;;24.49;40.68
498;BME280;39559;48.630;9.162;2023-06-04T12:54:55;97490.78;;;24.41;39.63
498;BME280;39559;48.630;9.162;2023-06-04T12:57:20;97477.31;;;24.70;39.36
498;BME280;39559;48.630;9.162;2023-06-04T12:59:46;97475.16;;;25.00;40.68
498;BME280;39559;48.630;9.162;2023-06-04T13:02:11;97479.97;;;24.70;40.54
498;BME280;39559;48.630;9.162;2023-06-04T13:04:37;97475.84;;;24.22;42.68
498;BME280;39559;48.630;9.162;2023-06-04T13:07:02;97481.31;;;24.03;40.22
498;BME280;39559;48.630;9.162;2023-06-04T13:09:28;97486.13;;;23.62;40.83
498;BME280;39559;48.630;9.162;2023-06-04T13:11:54;97488.03;;;23.97;39.69
498;BME280;39559;48.630;9.162;2023-06-04T13:16:22;97480.09;;;23.42;41.46
498;BME280;39559;48.630;9.162;2023-06-04T13:18:48;97492.13;;;23.64;39.78
498;BME280;39559;48.630;9.162;2023-06-04T13:21:13;97480.28;;;23.58;39.12
498;BME280;39559;48.630;9.162;2023-06-04T13:23:39;97476.59;;;23.97;42.41
498;BME280;39559;48.630;9.162;2023-06-04T13:26:04;97477.91;;;24.10;41.76
498;BME280;39559;48.630;9.162;2023-06-04T13:28:30;97482.75;;;23.97;39.76
498;BME280;39559;48.630;9.162;2023-06-04T13:30:55;97481.63;;;24.00;37.49
498;BME280;39559;48.630;9.162;2023-06-04T13:33:21;97481.16;;;24.40;41.39
498;BME280;39559;48.630;9.162;2023-06-04T13:35:47;97478.06;;;24.27;40.02
498;BME280;39559;48.630;9.162;2023-06-04T13:40:20;97484.09;;;24.01;39.50
498;BME280;39559;48.630;9.162;2023-06-04T13:42:46;97481.25;;;23.57;41.68
498;BME280;39559;48.630;9.162;2023-06-04T13:45:11;97475.41;;;23.53;41.35
498;BME280;39559;48.630;9.162;2023-06-04T13:47:37;97483.81;;;23.49;41.85
498;BME280;39559;48.630;9.162;2023-06-04T13:50:03;97475.03;;;23.48;40.66
498;BME280;39559;48.630;9.162;2023-06-04T13:52:31;97480.69;;;23.63;40.07
498;BME280;39559;48.630;9.162;2023-06-04T13:54:57;97477.66;;;23.48;40.77
498;BME280;39559;48.630;9.162;2023-06-04T13:57:27;97477.66;;;23.48;40.58
498;BME280;39559;48.630;9.162;2023-06-04T13:59:53;97464.72;;;23.73;37.97
498;BME280;39559;48.630;9.162;2023-06-04T14:04:11;97463.50;;;23.95;38.85
498;BME280;39559;48.630;9.162;2023-06-04T14:06:37;97460.41;;;24.00;40.25
498;BME280;39559;48.630;9.162;2023-06-04T14:09:04;97463.66;;;24.11;37.44
498;BME280;39559;48.630;9.162;2023-06-04T14:11:32;97464.31;;;23.95;39.71
498;BME280;39559;48.630;9.162;2023-06-04T14:13:58;97463.59;;;24.03;38.39
498;BME280;39559;48.630;9.162;2023-06-04T14:16:24;97453.66;;;24.23;37.02
498;BME280;39559;48.630;9.162;2023-06-04T14:18:49;97462.06;;;24.19;36.28
498;BME280;39559;48.630;9.162;2023-06-04T14:21:15;97467.34;;;23.83;37.78
498;BME280;39559;48.630;9.162;2023-06-04T14:23:40;97465.78;;;24.26;36.55
498;BME280;39559;48.630;9.162;2023-06-04T14:28:04;97469.78;;;24.12;38.05
498;BME280;39559;48.630;9.162;2023-06-04T14:30:30;97470.03;;;24.19;38.47
498;BME280;39559;48.630;9.162;2023-06-04T14:32:55;97469.72;;;24.22;37.80
498;BME280;39559;48.630;9.162;2023-06-04T14:35:21;97469.19;;;24.36;37.58